Погода Макаубасна 2 недели

Баия, Бразилия

20 июня-02 июля
  • 20июня
    Сегодня
    +15°
    +27°
    Облачно с прояснениями, небольшой дождь
    ВремяПогодаТемператураВлажностьДавлениеВетер, м/сВероятность осадков
    00:00Ясно и безоблачно+20°C79 %704 мм2.1 м/с5 %
    03:00Ясно и безоблачно+18°C86 %703 мм1.6 м/с5 %
    06:00Ясно и безоблачно+16°C93 %703 мм1.9 м/с5 %
    09:00Небольшая облачность+23°C65 %706 мм3.5 м/с3 %
    12:00Небольшая облачность+24°C61 %705 мм4.5 м/с34 %
    15:00Облачно с прояснениями, небольшой дождь+26°C53 %704 мм3.4 м/с54 %
    18:00Облачно с прояснениями+23°C61 %704 мм2.8 м/с7 %
    21:00Практически безоблачно+22°C70 %705 мм2.5 м/с2 %
  • 21июня
    Пятница
    +15°
    +29°
    Облачно с прояснениями
    ВремяПогодаТемператураВлажностьДавлениеВетер, м/сВероятность осадков
    00:00Ясно и безоблачно+19°C79 %704 мм2.1 м/с5 %
    03:00Ясно и безоблачно+17°C88 %703 мм1.9 м/с5 %
    06:00Ясно и безоблачно+15°C94 %703 мм1.6 м/с5 %
    09:00Ясно и безоблачно+23°C64 %706 мм3.2 м/с2 %
    12:00Небольшая облачность+26°C46 %705 мм3.9 м/с5 %
    15:00Облачно с прояснениями+29°C37 %703 мм3.0 м/с2 %
    18:00Небольшая облачность+24°C55 %704 мм4.0 м/с5 %
    21:00Практически безоблачно+22°C67 %705 мм3.3 м/с5 %
  • 22июня
    Суббота
    +15°
    +30°
    Практически безоблачно
    ВремяПогодаТемператураВлажностьДавлениеВетер, м/сВероятность осадков
    00:00Ясно и безоблачно+19°C78 %705 мм2.1 м/с5 %
    03:00Ясно и безоблачно+17°C88 %703 мм1.5 м/с5 %
    06:00Ясно и безоблачно+15°C88 %704 мм1.8 м/с5 %
    09:00Ясно и безоблачно+22°C55 %706 мм2.4 м/с5 %
    12:00Небольшая облачность+26°C42 %705 мм3.3 м/с5 %
    15:00Практически безоблачно+29°C28 %703 мм2.6 м/с5 %
    18:00Ясно и безоблачно+24°C35 %703 мм2.1 м/с3 %
    21:00Ясно и безоблачно+22°C54 %704 мм2.2 м/с3 %
  • 23июня
    Воскресенье
    +15°
    +29°
    Ясно и безоблачно
    ВремяПогодаТемператураВлажностьДавлениеВетер, м/сВероятность осадков
    00:00Ясно и безоблачно+19°C67 %704 мм1.5 м/с5 %
    03:00Ясно и безоблачно+17°C76 %703 мм1.5 м/с3 %
    06:00Ясно и безоблачно+16°C91 %704 мм1.2 м/с5 %
    09:00Ясно и безоблачно+22°C66 %706 мм2.0 м/с5 %
    12:00Ясно и безоблачно+26°C41 %705 мм2.4 м/с5 %
    15:00Ясно и безоблачно+29°C31 %703 мм1.5 м/с5 %
    18:00Ясно и безоблачно+24°C44 %703 мм1.4 м/с5 %
    21:00Ясно и безоблачно+24°C49 %704 мм1.7 м/с5 %
  • 24июня
    Понедельник
    +15°
    +29°
    Практически безоблачно
    ВремяПогодаТемператураВлажностьДавлениеВетер, м/сВероятность осадков
    00:00Ясно и безоблачно+20°C65 %704 мм1.7 м/с5 %
    03:00Ясно и безоблачно+18°C76 %703 мм1.4 м/с5 %
    06:00Ясно и безоблачно+16°C92 %704 мм0.9 м/с5 %
    09:00Ясно и безоблачно+22°C65 %706 мм2.2 м/с5 %
    12:00Ясно и безоблачно+27°C38 %705 мм2.2 м/с5 %
    15:00Практически безоблачно+29°C31 %703 мм1.5 м/с5 %
    18:00Ясно и безоблачно+25°C37 %703 мм1.9 м/с3 %
    21:00Ясно и безоблачно+23°C53 %704 мм2.1 м/с6 %
Мы используем cookies
Соглашаюсь